ロメ の空港の天気 - METARとTAF

ロメ空港 ( DXXX / LFW ) - トーゴ ロメ
飛行場実況気象(Metar)
観測時間02/17 14:00 GMT (02/17 14:00 UTC)
風向・風速南 4m/s
視程8000m
天気現象
少しの雲 雲底高度 460m
気温33℃
湿度59%
気圧1010hPa
METARDXXX 171400Z 18007KT 130V220 8000 FEW015 33/24 Q1010 NOSIG
過去の天気等 Google飛行場航空写真 Wunderground天気予報

過去48時間のMETAR

飛行場予報(TAF)
発表時間: 2/17 11:00 GMT (2/17 11:00 UTC)
予報対象時間: 17日12時 GMT ~ 18日18時 GMT
風向・風速南南西 5m/s
視程7000m
少しの雲 雲底高度 430m
18日0時 GMT ~ 18日2時 GMT に徐々に
風向・風速不定 2m/s
18日6時 GMT ~ 18日9時 GMT に一時的に
視程3500m
天気現象もや
18日10時 GMT ~ 18日12時 GMT に徐々に
風向・風速南 5m/s
TAF DXXX 171100Z 1712/1818 20010KT 7000 FEW014
BECMG 1800/1802 VRB03KT
TEMPO 1806/1809 3500 BR
BECMG 1810/1812 18010KT